createdAt,value
2018-06-14T00:00:23.108Z,13.50
2018-06-14T00:02:57.621Z,13.40
2018-06-14T00:05:32.237Z,13.40
2018-06-14T00:08:07.233Z,13.40
2018-06-14T00:10:41.707Z,13.40
2018-06-14T00:13:16.232Z,13.40
2018-06-14T00:15:50.861Z,13.40
2018-06-14T00:18:25.410Z,13.40
2018-06-14T00:20:59.993Z,13.40
2018-06-14T00:23:34.880Z,13.40
2018-06-14T00:26:09.553Z,13.40
2018-06-14T00:28:44.944Z,13.40
2018-06-14T00:31:19.835Z,13.40
2018-06-14T00:33:54.609Z,13.40
2018-06-14T00:36:29.114Z,13.40
2018-06-14T00:39:05.649Z,13.40
2018-06-14T00:41:40.665Z,13.40
2018-06-14T00:44:15.114Z,13.40
2018-06-14T00:46:50.004Z,13.40
2018-06-14T00:49:24.311Z,13.40
2018-06-14T00:51:59.494Z,13.40
2018-06-14T00:54:33.599Z,13.40
2018-06-14T00:57:24.797Z,13.30
2018-06-14T00:59:59.138Z,13.30
2018-06-14T01:02:34.053Z,13.30
2018-06-14T01:05:08.760Z,13.30
2018-06-14T01:07:42.949Z,13.40
2018-06-14T01:10:17.811Z,13.30
2018-06-14T01:12:52.434Z,13.30
2018-06-14T01:15:27.164Z,13.30
2018-06-14T01:18:01.735Z,13.30
2018-06-14T01:20:36.479Z,13.30
2018-06-14T01:23:11.109Z,13.30
2018-06-14T01:25:45.690Z,13.30
2018-06-14T01:28:20.267Z,13.40
2018-06-14T01:33:29.581Z,13.30
2018-06-14T01:36:04.334Z,13.30
2018-06-14T01:38:38.887Z,13.30
2018-06-14T01:41:13.527Z,13.30
2018-06-14T01:43:48.025Z,13.30
2018-06-14T01:46:22.981Z,13.30
2018-06-14T01:48:57.276Z,13.30
2018-06-14T01:51:31.940Z,13.30
2018-06-14T01:54:07.035Z,13.30
2018-06-14T01:56:41.514Z,13.30
2018-06-14T01:59:16.210Z,13.30
2018-06-14T02:01:50.574Z,13.30
2018-06-14T02:04:25.704Z,13.30
2018-06-14T02:06:59.882Z,13.30
2018-06-14T02:09:34.490Z,13.30
2018-06-14T02:12:09.063Z,13.20
2018-06-14T02:14:43.670Z,13.20
2018-06-14T02:17:18.589Z,13.20
2018-06-14T02:19:52.893Z,13.20
2018-06-14T02:22:27.547Z,13.20
2018-06-14T02:25:02.182Z,13.20
2018-06-14T02:27:36.874Z,13.20
2018-06-14T02:30:11.383Z,13.10
2018-06-14T02:32:46.079Z,13.10
2018-06-14T02:35:20.977Z,13.10
2018-06-14T02:37:55.536Z,13.10
2018-06-14T02:40:30.552Z,13.10
2018-06-14T02:43:04.818Z,13.10
2018-06-14T02:45:39.432Z,13.20
2018-06-14T02:48:14.999Z,13.10
2018-06-14T02:50:49.836Z,13.10
2018-06-14T02:53:24.444Z,13.10
2018-06-14T02:55:59.310Z,13.10
2018-06-14T02:58:34.000Z,13.10
2018-06-14T03:01:08.806Z,13.10
2018-06-14T03:03:43.841Z,13.10
2018-06-14T03:06:18.036Z,13.10
2018-06-14T03:08:52.601Z,13.10
2018-06-14T03:11:27.480Z,13.10
2018-06-14T03:14:01.962Z,13.10
2018-06-14T03:16:36.654Z,13.10
2018-06-14T03:19:11.307Z,13.10
2018-06-14T03:21:46.729Z,13.10
2018-06-14T03:24:21.651Z,13.10
2018-06-14T03:26:56.290Z,13.10
2018-06-14T03:29:31.289Z,13.10
2018-06-14T03:32:05.723Z,13.10
2018-06-14T03:34:40.312Z,13.00
2018-06-14T03:37:14.740Z,13.00
2018-06-14T03:39:49.594Z,13.00
2018-06-14T03:42:23.904Z,13.00
2018-06-14T03:44:58.443Z,13.00
2018-06-14T03:47:32.977Z,13.00
2018-06-14T03:50:07.598Z,13.10
2018-06-14T03:52:42.375Z,13.10
2018-06-14T03:55:17.018Z,13.10
2018-06-14T03:57:52.030Z,13.10
2018-06-14T04:00:26.462Z,13.10
2018-06-14T04:03:01.141Z,13.10
2018-06-14T04:05:35.728Z,13.10
2018-06-14T04:08:10.267Z,13.10
2018-06-14T04:10:45.078Z,13.20
2018-06-14T04:13:19.783Z,13.20
2018-06-14T04:15:54.387Z,13.20
2018-06-14T04:18:28.950Z,13.30
2018-06-14T04:21:03.445Z,13.40
2018-06-14T04:23:37.922Z,13.40
2018-06-14T04:26:12.847Z,13.50
2018-06-14T04:28:47.092Z,13.50
2018-06-14T04:31:21.929Z,13.60
2018-06-14T04:33:56.645Z,13.60
2018-06-14T04:36:31.329Z,13.60
2018-06-14T04:39:08.976Z,13.60
2018-06-14T04:41:43.612Z,13.70
2018-06-14T04:44:18.329Z,13.70
2018-06-14T04:46:52.915Z,13.80
2018-06-14T04:49:27.642Z,13.80
2018-06-14T04:52:02.258Z,13.90
2018-06-14T04:54:36.944Z,13.90
2018-06-14T04:57:11.718Z,14.00
2018-06-14T04:59:46.425Z,14.10
2018-06-14T05:02:21.019Z,14.20
2018-06-14T05:04:55.688Z,14.30
2018-06-14T05:07:30.218Z,14.50
2018-06-14T05:10:05.114Z,14.70
2018-06-14T05:12:39.848Z,14.90
2018-06-14T05:15:14.503Z,15.00
2018-06-14T05:17:48.975Z,15.20
2018-06-14T05:20:23.716Z,15.40
2018-06-14T05:22:58.546Z,15.70
2018-06-14T05:25:33.027Z,15.90
2018-06-14T05:28:08.275Z,16.10
2018-06-14T05:30:43.110Z,16.50
2018-06-14T05:33:18.119Z,17.40
2018-06-14T05:35:52.726Z,18.80
2018-06-14T05:38:27.214Z,20.10
2018-06-14T05:41:01.852Z,21.20
2018-06-14T05:43:36.543Z,21.60
2018-06-14T05:46:11.230Z,21.70
2018-06-14T05:48:45.769Z,21.80
2018-06-14T05:51:20.474Z,22.20
2018-06-14T05:53:55.056Z,23.00
2018-06-14T05:56:29.859Z,23.60
2018-06-14T05:59:04.472Z,24.00
2018-06-14T06:01:38.994Z,24.30
2018-06-14T06:04:14.312Z,24.40
2018-06-14T06:06:49.292Z,24.40
2018-06-14T06:09:23.829Z,24.00
2018-06-14T06:11:58.546Z,23.30
2018-06-14T06:14:33.148Z,22.50
2018-06-14T06:17:07.963Z,21.90
2018-06-14T06:19:42.631Z,21.40
2018-06-14T06:22:17.330Z,21.20
2018-06-14T06:24:52.017Z,21.00
2018-06-14T06:27:26.830Z,20.70
2018-06-14T06:30:01.666Z,20.50
2018-06-14T06:32:36.791Z,20.40
2018-06-14T06:35:11.158Z,20.40
2018-06-14T06:37:45.885Z,20.50
2018-06-14T06:40:20.658Z,20.50
2018-06-14T06:42:55.604Z,20.40
2018-06-14T06:45:29.860Z,20.20
2018-06-14T06:48:04.673Z,20.00
2018-06-14T06:50:38.974Z,19.90
2018-06-14T06:58:23.161Z,19.40
2018-06-14T07:00:57.557Z,19.00
2018-06-14T07:03:32.257Z,18.80
2018-06-14T07:06:06.801Z,18.50
2018-06-14T07:08:41.597Z,18.20
2018-06-14T07:11:16.373Z,17.90
2018-06-14T07:13:51.315Z,17.60
2018-06-14T07:16:25.724Z,17.30
2018-06-14T07:19:00.792Z,17.20
2018-06-14T07:21:35.457Z,17.00
2018-06-14T07:24:10.514Z,16.90
2018-06-14T07:26:44.771Z,16.80
2018-06-14T07:29:19.324Z,16.60
2018-06-14T07:31:53.830Z,16.50
2018-06-14T07:34:28.430Z,16.40
2018-06-14T07:37:03.082Z,16.30
2018-06-14T07:39:37.679Z,16.20
2018-06-14T07:42:12.205Z,16.20
2018-06-14T07:44:46.898Z,16.20
2018-06-14T07:47:21.667Z,16.20
2018-06-14T07:49:56.010Z,16.20
2018-06-14T07:52:30.710Z,16.20
2018-06-14T07:55:05.489Z,16.30
2018-06-14T07:57:40.361Z,16.40
2018-06-14T08:00:14.778Z,16.40
2018-06-14T08:02:49.406Z,16.50
2018-06-14T08:05:24.061Z,16.70
2018-06-14T08:07:58.717Z,16.90
2018-06-14T08:10:33.287Z,17.00
2018-06-14T08:13:08.238Z,17.20
2018-06-14T08:15:42.868Z,17.30
2018-06-14T08:18:17.366Z,17.30
2018-06-14T08:20:52.012Z,17.30
2018-06-14T08:23:26.715Z,17.40
2018-06-14T08:26:01.369Z,17.40
2018-06-14T08:28:36.074Z,17.40
2018-06-14T08:31:11.269Z,17.30
2018-06-14T08:33:45.482Z,17.30
2018-06-14T08:36:20.189Z,17.20
2018-06-14T08:38:54.756Z,17.20
2018-06-14T08:41:29.786Z,17.10
2018-06-14T08:44:04.402Z,17.00
2018-06-14T08:46:39.090Z,16.90
2018-06-14T08:49:14.041Z,17.00
2018-06-14T08:51:48.295Z,17.00
2018-06-14T08:54:22.918Z,17.00
2018-06-14T08:56:58.092Z,17.00
2018-06-14T08:59:32.303Z,17.10
2018-06-14T09:02:06.928Z,17.10
2018-06-14T09:04:41.448Z,17.20
2018-06-14T09:07:15.979Z,17.20
2018-06-14T09:09:50.421Z,17.30
2018-06-14T09:12:24.993Z,17.30
2018-06-14T09:14:59.626Z,17.40
2018-06-14T09:17:34.331Z,17.40
2018-06-14T09:20:09.126Z,17.40
2018-06-14T09:22:43.794Z,17.40
2018-06-14T09:25:18.555Z,17.40
2018-06-14T09:27:53.321Z,17.40
2018-06-14T09:30:28.070Z,17.30
2018-06-14T09:33:02.530Z,17.30
2018-06-14T09:35:37.125Z,17.30
2018-06-14T09:38:12.538Z,17.20
2018-06-14T09:40:47.058Z,17.20
2018-06-14T09:43:21.742Z,17.20
2018-06-14T09:45:56.526Z,17.20
2018-06-14T09:48:30.924Z,17.20
2018-06-14T09:51:05.577Z,17.30
2018-06-14T09:53:40.224Z,17.40
2018-06-14T09:56:14.894Z,17.60
2018-06-14T09:58:49.563Z,17.90
2018-06-14T10:01:24.308Z,18.20
2018-06-14T10:03:59.185Z,18.60
2018-06-14T10:06:34.233Z,18.80
2018-06-14T10:09:10.715Z,19.00
2018-06-14T10:11:45.390Z,19.20
2018-06-14T10:14:19.988Z,19.40
2018-06-14T10:16:54.818Z,19.60
2018-06-14T10:19:29.487Z,19.80
2018-06-14T10:22:04.217Z,20.00
2018-06-14T10:24:39.000Z,20.40
2018-06-14T10:27:13.870Z,20.60
2018-06-14T10:29:48.606Z,20.60
2018-06-14T10:32:23.977Z,20.60
2018-06-14T10:34:59.017Z,20.50
2018-06-14T10:37:33.454Z,20.40
2018-06-14T10:40:08.248Z,20.30
2018-06-14T10:42:42.813Z,20.30
2018-06-14T10:45:17.478Z,20.50
2018-06-14T10:47:52.280Z,20.30
2018-06-14T10:50:26.949Z,20.00
2018-06-14T10:53:01.472Z,19.90
2018-06-14T10:55:36.187Z,19.80
2018-06-14T10:58:10.880Z,19.70
2018-06-14T11:00:45.502Z,19.70
2018-06-14T11:03:20.192Z,19.70
2018-06-14T11:05:54.872Z,19.70
2018-06-14T11:08:29.598Z,19.60
2018-06-14T11:11:04.304Z,19.60
2018-06-14T11:13:38.926Z,19.60
2018-06-14T11:16:13.938Z,19.40
2018-06-14T11:18:48.322Z,19.30
2018-06-14T11:21:23.000Z,19.20
2018-06-14T11:23:57.682Z,19.20
2018-06-14T11:26:32.195Z,19.00
2018-06-14T11:29:07.010Z,18.80
2018-06-14T11:31:41.563Z,18.70
2018-06-14T11:34:16.208Z,18.70
2018-06-14T11:36:51.678Z,18.70
2018-06-14T11:39:26.567Z,18.70
2018-06-14T11:42:02.523Z,18.80
2018-06-14T11:44:37.177Z,18.90
2018-06-14T11:47:11.832Z,19.00
2018-06-14T11:49:46.360Z,19.10
2018-06-14T11:52:21.402Z,19.10
2018-06-14T11:54:55.771Z,19.20
2018-06-14T11:57:32.196Z,19.40
2018-06-14T12:00:07.055Z,19.40
2018-06-14T12:02:41.683Z,19.50
2018-06-14T12:05:16.306Z,19.50
2018-06-14T12:07:51.903Z,19.60
2018-06-14T12:10:26.854Z,19.60
2018-06-14T12:13:01.149Z,19.50
2018-06-14T12:15:36.053Z,19.50
2018-06-14T12:18:10.494Z,19.60
2018-06-14T12:20:45.471Z,19.70
2018-06-14T12:23:19.731Z,19.70
2018-06-14T12:25:54.606Z,19.80
2018-06-14T12:28:29.260Z,19.90
2018-06-14T12:31:04.139Z,20.00
2018-06-14T12:33:38.737Z,19.90
2018-06-14T12:36:13.555Z,19.90
2018-06-14T12:38:48.282Z,19.80
2018-06-14T12:41:22.811Z,19.80
2018-06-14T12:43:57.618Z,19.60
2018-06-14T12:46:32.259Z,19.40
2018-06-14T12:49:07.001Z,19.40
2018-06-14T12:51:41.756Z,19.40
2018-06-14T12:54:16.352Z,19.40
2018-06-14T12:56:51.882Z,19.40
2018-06-14T12:59:26.770Z,19.40
2018-06-14T13:02:01.387Z,19.60
2018-06-14T13:04:36.014Z,19.60
2018-06-14T13:07:10.706Z,19.70
2018-06-14T13:09:45.334Z,19.90
2018-06-14T13:12:20.597Z,20.00
2018-06-14T13:14:55.192Z,20.10
2018-06-14T13:17:29.421Z,20.10
2018-06-14T13:20:04.174Z,20.20
2018-06-14T13:22:38.802Z,20.30
2018-06-14T13:25:13.285Z,20.30
2018-06-14T13:27:48.066Z,20.30
2018-06-14T13:30:22.615Z,20.20
2018-06-14T13:32:57.268Z,20.10
2018-06-14T13:35:32.037Z,20.10
2018-06-14T13:38:06.719Z,20.10
2018-06-14T13:40:41.352Z,20.10
2018-06-14T13:43:16.121Z,20.10
2018-06-14T13:45:50.602Z,20.20
2018-06-14T13:48:25.267Z,20.10
2018-06-14T13:50:59.956Z,20.20
2018-06-14T13:53:34.581Z,20.20
2018-06-14T13:56:09.284Z,20.20
2018-06-14T13:58:44.061Z,20.10
2018-06-14T14:01:18.660Z,20.00
2018-06-14T14:03:53.318Z,19.80
2018-06-14T14:06:28.660Z,19.60
2018-06-14T14:09:03.182Z,19.40
2018-06-14T14:11:37.399Z,19.30
2018-06-14T14:14:12.213Z,19.20
2018-06-14T14:16:47.362Z,19.20
2018-06-14T14:19:21.572Z,19.30
2018-06-14T14:21:56.306Z,19.30
2018-06-14T14:24:31.068Z,19.30
2018-06-14T14:27:05.708Z,19.40
2018-06-14T14:29:40.346Z,19.40
2018-06-14T14:32:14.942Z,19.40
2018-06-14T14:34:49.687Z,19.30
2018-06-14T14:37:24.362Z,19.20
2018-06-14T14:39:59.196Z,19.20
2018-06-14T14:42:34.477Z,19.10
2018-06-14T14:45:09.092Z,18.90
2018-06-14T14:47:43.664Z,18.80
2018-06-14T14:50:18.116Z,18.70
2018-06-14T14:52:52.624Z,18.70
2018-06-14T14:55:27.785Z,18.60
2018-06-14T14:58:02.114Z,18.60
2018-06-14T15:00:36.590Z,18.60
2018-06-14T15:03:12.052Z,18.50
2018-06-14T15:05:47.316Z,18.50
2018-06-14T15:08:21.500Z,18.50
2018-06-14T15:10:56.158Z,18.60
2018-06-14T15:13:30.770Z,18.60
2018-06-14T15:16:05.366Z,18.70
2018-06-14T15:18:39.872Z,18.70
2018-06-14T15:21:14.517Z,18.80
2018-06-14T15:23:49.199Z,18.80
2018-06-14T15:26:24.069Z,18.80
2018-06-14T15:28:58.228Z,18.80
2018-06-14T15:31:32.812Z,18.80
2018-06-14T15:34:08.334Z,18.90
2018-06-14T15:36:43.032Z,18.90
2018-06-14T15:39:17.554Z,18.90
2018-06-14T15:41:52.463Z,18.90
2018-06-14T15:44:27.062Z,18.90
2018-06-14T15:47:02.456Z,18.80
2018-06-14T15:49:37.328Z,18.70
2018-06-14T15:52:11.889Z,18.70
2018-06-14T15:55:03.497Z,18.60
2018-06-14T15:57:37.702Z,18.50
2018-06-14T16:00:12.385Z,18.40
2018-06-14T16:02:47.087Z,18.30
2018-06-14T16:05:22.023Z,18.20
2018-06-14T16:07:56.416Z,18.20
2018-06-14T16:10:30.963Z,18.10
2018-06-14T16:13:05.586Z,18.10
2018-06-14T16:15:40.150Z,18.00
2018-06-14T16:18:15.152Z,17.90
2018-06-14T16:20:49.826Z,17.90
2018-06-14T16:23:24.779Z,17.80
2018-06-14T16:25:59.824Z,17.80
2018-06-14T16:28:34.367Z,17.70
2018-06-14T16:31:09.205Z,17.70
2018-06-14T16:33:43.886Z,17.60
2018-06-14T16:36:18.429Z,17.60
2018-06-14T16:38:52.952Z,17.60
2018-06-14T16:41:28.030Z,17.50
2018-06-14T16:44:02.335Z,17.50
2018-06-14T16:46:36.844Z,17.60
2018-06-14T16:49:11.678Z,17.60
2018-06-14T16:51:46.349Z,17.60
2018-06-14T16:54:20.943Z,17.70
2018-06-14T16:56:56.563Z,17.70
2018-06-14T16:59:31.260Z,17.80
2018-06-14T17:02:05.992Z,17.90
2018-06-14T17:04:40.748Z,17.90
2018-06-14T17:07:15.464Z,17.90
2018-06-14T17:09:50.022Z,18.00
2018-06-14T17:12:24.612Z,18.00
2018-06-14T17:14:59.057Z,18.00
2018-06-14T17:17:33.638Z,18.00
2018-06-14T17:20:08.354Z,18.00
2018-06-14T17:22:42.836Z,18.00
2018-06-14T17:25:17.851Z,18.00
2018-06-14T17:27:52.194Z,18.00
2018-06-14T17:30:26.999Z,18.00
2018-06-14T17:33:02.090Z,18.00
2018-06-14T17:35:37.050Z,18.00
2018-06-14T17:38:11.620Z,17.90
2018-06-14T17:40:46.399Z,17.90
2018-06-14T17:43:21.117Z,17.90
2018-06-14T17:45:55.751Z,17.80
2018-06-14T17:48:30.250Z,17.80
2018-06-14T17:51:05.778Z,17.70
2018-06-14T17:53:40.927Z,17.70
2018-06-14T17:56:15.685Z,17.70
2018-06-14T17:58:50.145Z,17.60
2018-06-14T18:01:24.819Z,17.60
2018-06-14T18:03:59.389Z,17.60
2018-06-14T18:06:34.014Z,17.50
2018-06-14T18:09:09.501Z,17.50
2018-06-14T18:11:44.952Z,17.50
2018-06-14T18:14:19.990Z,17.40
2018-06-14T18:16:54.693Z,17.40
2018-06-14T18:19:29.367Z,17.40
2018-06-14T18:22:03.987Z,17.30
2018-06-14T18:24:38.844Z,17.30
2018-06-14T18:27:13.608Z,17.30
2018-06-14T18:29:48.357Z,17.20
2018-06-14T18:32:23.451Z,17.20
2018-06-14T18:34:58.827Z,17.20
2018-06-14T18:37:34.640Z,17.20
2018-06-14T18:40:08.852Z,17.20
2018-06-14T18:42:44.755Z,17.10
2018-06-14T18:45:19.952Z,17.10
2018-06-14T18:47:55.349Z,17.10
2018-06-14T18:50:30.942Z,17.00
2018-06-14T18:53:05.953Z,17.00
2018-06-14T18:55:42.047Z,16.90
2018-06-14T18:58:17.234Z,16.90
2018-06-14T19:00:53.279Z,16.80
2018-06-14T19:03:28.902Z,16.70
2018-06-14T19:06:04.227Z,16.70
2018-06-14T19:08:39.106Z,16.70
2018-06-14T19:11:15.146Z,16.60
2018-06-14T19:13:50.358Z,16.60
2018-06-14T19:16:26.231Z,16.50
2018-06-14T19:19:01.868Z,16.40
2018-06-14T19:21:37.121Z,16.40
2018-06-14T19:24:11.752Z,16.40
2018-06-14T19:26:46.893Z,16.30
2018-06-14T19:29:22.143Z,16.20
2018-06-14T19:31:57.287Z,16.10
2018-06-14T19:34:33.050Z,16.10
2018-06-14T19:37:08.108Z,16.10
2018-06-14T19:39:43.412Z,16.00
2018-06-14T19:42:18.550Z,16.00
2018-06-14T19:44:54.581Z,15.90
2018-06-14T19:47:30.660Z,15.90
2018-06-14T19:50:06.196Z,15.80
2018-06-14T19:52:42.317Z,15.70
2018-06-14T19:55:18.417Z,15.60
2018-06-14T19:57:53.771Z,15.60
2018-06-14T20:00:29.824Z,15.50
2018-06-14T20:03:05.689Z,15.50
2018-06-14T20:05:41.234Z,15.40
2018-06-14T20:08:18.950Z,15.30
2018-06-14T20:10:54.422Z,15.30
2018-06-14T20:13:31.117Z,15.20
2018-06-14T20:16:06.160Z,15.10
2018-06-14T20:18:41.265Z,15.10
2018-06-14T20:21:16.910Z,15.00
2018-06-14T20:23:52.530Z,14.90
2018-06-14T20:26:27.715Z,14.90
2018-06-14T20:29:02.459Z,14.90
2018-06-14T20:31:37.579Z,14.80
2018-06-14T20:34:12.316Z,14.70
2018-06-14T20:36:47.335Z,14.70
2018-06-14T20:39:21.797Z,14.60
2018-06-14T20:41:56.752Z,14.50
2018-06-14T20:44:31.758Z,14.50
2018-06-14T20:47:07.917Z,14.40
2018-06-14T20:49:42.630Z,14.30
2018-06-14T20:52:17.114Z,14.30
2018-06-14T20:54:52.881Z,14.30
2018-06-14T20:57:27.329Z,14.20
2018-06-14T21:00:01.977Z,14.20
2018-06-14T21:02:36.648Z,14.20
2018-06-14T21:05:11.319Z,14.20
2018-06-14T21:07:46.109Z,14.20
2018-06-14T21:10:21.142Z,14.30
2018-06-14T21:12:55.613Z,14.30
2018-06-14T21:15:30.514Z,14.30
2018-06-14T21:18:06.106Z,14.30
2018-06-14T21:23:15.653Z,14.30
2018-06-14T21:25:49.961Z,14.30
2018-06-14T21:28:24.658Z,14.30
2018-06-14T21:30:59.364Z,14.20
2018-06-14T21:33:34.047Z,14.20
2018-06-14T21:36:08.603Z,14.10
2018-06-14T21:38:43.492Z,14.10
2018-06-14T21:41:18.033Z,14.00
2018-06-14T21:43:53.310Z,14.00
2018-06-14T21:46:27.674Z,13.90
2018-06-14T21:49:02.190Z,13.80
2018-06-14T21:51:36.898Z,13.80
2018-06-14T21:54:11.527Z,13.70
2018-06-14T21:56:46.052Z,13.70
2018-06-14T21:59:20.614Z,13.60
2018-06-14T22:01:55.214Z,13.50
2018-06-14T22:04:30.918Z,13.50
2018-06-14T22:07:05.593Z,13.40
2018-06-14T22:09:40.306Z,13.40
2018-06-14T22:12:14.949Z,13.30
2018-06-14T22:14:49.656Z,13.30
2018-06-14T22:17:24.311Z,13.30
2018-06-14T22:19:58.834Z,13.20
2018-06-14T22:22:33.880Z,13.20
2018-06-14T22:25:08.950Z,13.10
2018-06-14T22:27:44.034Z,13.10
2018-06-14T22:30:18.965Z,13.00
2018-06-14T22:33:10.394Z,13.00
2018-06-14T22:35:44.971Z,13.00
2018-06-14T22:38:19.936Z,12.90
2018-06-14T22:40:54.356Z,12.90
2018-06-14T22:43:29.000Z,12.80
2018-06-14T22:46:03.845Z,12.80
2018-06-14T22:48:38.444Z,12.70
2018-06-14T22:51:17.994Z,12.70
2018-06-14T22:53:52.856Z,12.60
2018-06-14T22:56:27.381Z,12.60
2018-06-14T22:59:02.256Z,12.60
2018-06-14T23:01:45.280Z,12.60
2018-06-14T23:04:22.130Z,12.50
2018-06-14T23:06:56.754Z,12.50
2018-06-14T23:10:46.054Z,12.50
2018-06-14T23:13:20.863Z,12.50
2018-06-14T23:15:55.441Z,12.40
2018-06-14T23:18:30.154Z,12.30
2018-06-14T23:21:04.833Z,12.30
2018-06-14T23:23:39.475Z,12.30
2018-06-14T23:26:14.184Z,12.30
2018-06-14T23:28:49.133Z,12.20
2018-06-14T23:31:23.440Z,12.20
2018-06-14T23:33:58.685Z,12.30
2018-06-14T23:36:33.728Z,12.30
2018-06-14T23:39:08.600Z,12.20
2018-06-14T23:41:43.976Z,12.20
2018-06-14T23:44:19.023Z,12.20
2018-06-14T23:46:53.716Z,12.20
2018-06-14T23:49:27.863Z,12.30
2018-06-14T23:52:02.470Z,12.30
2018-06-14T23:54:37.552Z,12.30
2018-06-14T23:57:11.821Z,12.30
2018-06-14T23:59:46.584Z,12.40
